Schedule Details


Flight Number: CTN367
Departure: Alexander The Great (LWSK) at 05:45
Arrival: Franjo Tudman (LDZA) at 07:05
Route: GOSTI P92 MAVAR UY400 RETRA UL604 BOSNA UL608 KOMAR L187 TEBLI

Weather Information
LWSK 151700Z VRB01KT CAVOK 24/10 Q1021 NOSIG
LDZA 151630Z 22002KT CAVOK 25/14 Q1022 NOSIG
Schedule Frequency

Route Map